Aviation Digital Data Service (ADDS)

Output produced by METARs form (1908 UTC 25 June 2017)
found at http://www.aviationweather.gov/adds/metars/
 
SOCA 251900Z AUTO 01009KT 340V040 9999 BKN018 OVC045 29/24 Q1011 TEMPO 3000 SHRA FEW012TCU
TAF SOCA 251700Z 2518/2618 07008KT 9999 SCT025 SCT060 
     PROB30 
     TEMPO 2518/2618 3000 SHRA FEW012TCU 
     FM252300 VRB02KT 9999 FEW020 
     FM261400 07006KT 9999 SCT028 SCT060